Time;durP1;ratioP1;P1;durP2;ratioP2;P2;SDS_P1;SDS_P2;PMS_P1;PMS_P2;Temp;Humidity;BMP_temperature;BMP_pressure;BME280_temperature;BME280_humidity;BME280_pressure;Samples;Min_cycle;Max_cycle;Signal;HPM_P1;HPM_P2
2021/08/26 00:00:20;;;;;;;17.25;9.60;;;;;;;19.68;82.68;100701.45;1888718;76;21078;-60
2021/08/26 00:06:14;;;;;;;16.55;9.43;;;;;;;19.69;82.58;100699.13;1888636;74;21058;-60
2021/08/26 00:08:12;;;;;;;20.77;10.28;;;;;;;19.67;82.49;100700.58;1872177;76;21035;-60
2021/08/26 00:10:41;;;;;;;22.17;10.00;;;;;;;19.63;82.55;100700.47;1916087;75;21186;-60
2021/08/26 00:13:11;;;;;;;21.97;10.95;;;;;;;19.61;82.60;100701.06;1888474;76;21105;-60
2021/08/26 00:15:47;;;;;;;21.12;10.72;;;;;;;19.59;82.61;100701.67;1916246;75;21022;-60
2021/08/26 00:18:19;;;;;;;22.22;10.85;;;;;;;19.59;82.71;100702.17;1888500;76;21465;-61
2021/08/26 00:20:53;;;;;;;20.60;10.53;;;;;;;19.58;82.56;100698.63;1916207;75;21030;-60
2021/08/26 00:23:23;;;;;;;;;;;;;;;19.58;82.41;100699.97;1891223;76;21031;-60
2021/08/26 00:25:52;;;;;;;24.55;13.80;;;;;;;19.55;82.27;100701.55;1916090;75;20249;-60
2021/08/26 00:28:21;;;;;;;25.52;15.08;;;;;;;19.53;82.11;100699.49;1888563;76;21050;-61
2021/08/26 00:30:50;;;;;;;18.52;10.68;;;;;;;19.50;82.65;100694.87;1916265;75;21118;-60
2021/08/26 00:33:19;;;;;;;26.12;14.45;;;;;;;19.44;83.10;100690.83;1888585;76;21474;-61
2021/08/26 00:35:48;;;;;;;23.77;13.65;;;;;;;19.40;83.26;100693.38;1916151;75;21100;-60
2021/08/26 00:38:17;;;;;;;28.98;17.55;;;;;;;19.38;83.18;100693.98;1888597;76;21588;-61
2021/08/26 00:40:46;;;;;;;24.12;13.03;;;;;;;19.36;83.23;100695.92;1916159;75;21002;-60
2021/08/26 00:43:15;;;;;;;30.65;17.40;;;;;;;19.35;83.17;100692.87;1888583;76;21046;-60
2021/08/26 00:45:45;;;;;;;38.28;24.72;;;;;;;19.32;83.37;100690.45;1916107;75;21465;-60
2021/08/26 00:48:14;;;;;;;37.63;20.92;;;;;;;19.28;83.52;100692.51;1888558;76;21477;-60
2021/08/26 00:50:42;;;;;;;32.55;17.52;;;;;;;19.26;83.44;100684.61;1916004;75;21152;-60
2021/08/26 00:53:11;;;;;;;26.45;15.72;;;;;;;19.26;83.38;100684.61;1888558;76;21086;-60
2021/08/26 00:55:40;;;;;;;30.97;15.30;;;;;;;19.24;83.35;100685.22;1916112;75;21010;-60
2021/08/26 00:58:09;;;;;;;28.02;15.85;;;;;;;19.23;83.15;100679.99;1888637;76;21039;-60
2021/08/26 01:00:40;;;;;;;29.70;15.88;;;;;;;19.22;83.11;100683.64;1916167;75;21115;-60
2021/08/26 01:03:14;;;;;;;26.82;13.80;;;;;;;19.18;83.14;100679.02;1888558;76;21129;-61
2021/08/26 01:05:55;;;;;;;19.90;9.30;;;;;;;19.15;83.35;100683.25;1916151;73;21086;-60
2021/08/26 01:08:42;;;;;;;15.32;9.00;;;;;;;19.12;83.30;100688.81;1888454;76;21058;-60
2021/08/26 01:11:11;;;;;;;14.98;7.97;;;;;;;19.08;83.29;100690.86;1887382;76;21026;-60
2021/08/26 01:13:43;;;;;;;11.85;8.28;;;;;;;19.03;83.30;100693.05;1888672;76;21115;-61
2021/08/26 01:16:14;;;;;;;12.98;8.45;;;;;;;19.00;83.24;100688.42;1888636;76;21148;-61
2021/08/26 01:18:45;;;;;;;19.27;8.60;;;;;;;18.97;83.30;100689.98;1888507;76;21106;-60
2021/08/26 01:21:16;;;;;;;20.55;9.90;;;;;;;18.94;83.50;100695.53;1888534;76;21026;-60
2021/08/26 01:23:50;;;;;;;14.10;8.98;;;;;;;18.90;83.83;100690.45;1888642;76;21019;-60
2021/08/26 01:26:22;;;;;;;18.77;10.43;;;;;;;18.88;83.71;100693.69;1888554;76;21082;-60
2021/08/26 01:28:53;;;;;;;20.05;8.40;;;;;;;18.86;83.60;100683.62;1915603;75;21469;-60
2021/08/26 01:31:23;;;;;;;16.67;9.18;;;;;;;18.85;83.74;100685.06;1888625;76;21069;-60
2021/08/26 01:33:56;;;;;;;15.85;8.85;;;;;;;18.80;83.80;100675.21;1888522;76;21078;-60
2021/08/26 01:36:33;;;;;;;15.43;8.37;;;;;;;18.77;83.82;100678.94;1888801;76;21509;-61
2021/08/26 01:39:07;;;;;;;17.55;8.80;;;;;;;18.77;83.82;100678.94;1888522;76;22241;-61
2021/08/26 01:41:45;;;;;;;22.00;9.58;;;;;;;18.76;83.96;100683.92;1887616;76;21555;-60
2021/08/26 01:44:21;;;;;;;14.85;9.05;;;;;;;18.74;84.21;100681.86;1888584;76;21007;-60
2021/08/26 01:46:52;;;;;;;18.02;9.88;;;;;;;18.73;84.39;100685.47;1888466;76;21043;-60
2021/08/26 01:49:20;;;;;;;18.10;10.32;;;;;;;18.71;84.33;100690.07;1888157;76;21514;-60
2021/08/26 01:51:49;;;;;;;20.40;9.40;;;;;;;18.73;84.42;100689.47;1916097;75;21136;-61
2021/08/26 01:54:18;;;;;;;17.07;9.85;;;;;;;18.74;84.35;100691.64;1888536;76;21054;-60
2021/08/26 01:56:47;;;;;;;22.02;9.75;;;;;;;18.73;84.29;100689.47;1888505;76;21039;-60
2021/08/26 01:59:15;;;;;;;17.35;8.98;;;;;;;18.72;84.28;100691.79;1888476;76;21477;-60
2021/08/26 02:01:44;;;;;;;19.85;10.03;;;;;;;18.71;84.24;100694.91;1888403;76;21055;-61
2021/08/26 02:04:13;;;;;;;24.52;9.63;;;;;;;18.73;84.17;100690.80;1916101;75;21054;-60
2021/08/26 02:06:41;;;;;;;18.70;10.03;;;;;;;18.72;84.21;100679.78;1888457;74;21658;-60
2021/08/26 02:09:10;;;;;;;25.77;12.40;;;;;;;18.73;84.26;100683.30;1916056;75;21027;-60
2021/08/26 02:11:39;;;;;;;23.10;11.50;;;;;;;18.72;84.31;100685.13;1888543;76;21445;-60
2021/08/26 02:14:08;;;;;;;18.73;10.78;;;;;;;18.72;84.30;100683.78;1915975;75;21070;-61
2021/08/26 02:16:36;;;;;;;20.85;11.48;;;;;;;18.70;84.31;100677.23;1888495;76;21042;-61
2021/08/26 02:19:05;;;;;;;25.12;10.45;;;;;;;18.68;84.44;100664.49;1916029;75;21437;-61
2021/08/26 02:21:34;;;;;;;17.32;9.80;;;;;;;18.67;84.47;100676.11;1888495;76;21144;-60
2021/08/26 02:24:03;;;;;;;17.87;9.93;;;;;;;18.67;84.36;100671.27;1888497;76;21129;-60
2021/08/26 02:26:33;;;;;;;18.65;10.05;;;;;;;18.64;84.42;100670.15;1888759;76;21082;-60
2021/08/26 02:29:01;;;;;;;20.43;8.93;;;;;;;18.63;84.41;100680.47;1916026;75;21094;-61
2021/08/26 02:31:31;;;;;;;16.15;10.43;;;;;;;18.62;84.29;100682.75;1888486;76;21038;-60
2021/08/26 02:33:59;;;;;;;19.00;9.18;;;;;;;18.61;84.19;100679.70;1916180;75;21018;-60
2021/08/26 02:36:28;;;;;;;21.60;9.48;;;;;;;18.59;84.11;100689.63;1888502;76;21062;-60
2021/08/26 02:38:58;;;;;;;14.43;9.55;;;;;;;18.57;84.12;100686.23;1888413;76;21156;-60
2021/08/26 02:41:27;;;;;;;17.40;9.13;;;;;;;18.56;84.19;100679.22;1888373;76;21125;-61
2021/08/26 02:43:55;;;;;;;19.42;9.83;;;;;;;18.59;84.14;100672.30;1888459;76;21055;-60
2021/08/26 02:46:24;;;;;;;17.17;10.20;;;;;;;18.60;84.27;100675.35;1888460;76;21112;-60
2021/08/26 02:48:53;;;;;;;17.77;10.08;;;;;;;18.61;84.25;100680.58;1916034;75;21078;-61
2021/08/26 02:51:21;;;;;;;34.73;25.37;;;;;;;18.64;84.29;100688.82;1888569;76;21034;-60
2021/08/26 02:53:50;;;;;;;31.57;25.55;;;;;;;18.67;84.23;100690.78;1915966;75;21014;-60
2021/08/26 02:56:19;;;;;;;28.20;17.00;;;;;;;18.71;84.13;100700.73;1888483;76;21030;-61
2021/08/26 02:58:47;;;;;;;21.12;10.50;;;;;;;18.75;84.14;100706.70;1916246;75;21117;-60
2021/08/26 03:01:16;;;;;;;17.23;10.45;;;;;;;18.77;84.11;100705.61;1888588;76;21104;-60
2021/08/26 03:03:45;;;;;;;16.93;10.25;;;;;;;18.78;84.18;100695.33;1916277;75;21051;-60
2021/08/26 03:06:13;;;;;;;21.93;12.10;;;;;;;18.80;84.15;100689.88;1888512;74;21126;-60
2021/08/26 03:08:42;;;;;;;19.25;11.75;;;;;;;18.83;84.12;100691.87;1916172;75;21232;-60
2021/08/26 03:11:11;;;;;;;43.30;26.90;;;;;;;18.89;84.02;100697.23;1888797;76;21185;-60
2021/08/26 03:13:40;;;;;;;35.20;24.37;;;;;;;18.98;83.84;100701.00;1916122;75;21121;-60
2021/08/26 03:16:09;;;;;;;28.50;18.57;;;;;;;19.05;83.75;100702.25;1888599;76;21010;-58
2021/08/26 03:18:38;;;;;;;19.70;12.00;;;;;;;19.13;83.66;100695.86;1916214;75;21074;-59
2021/08/26 03:21:06;;;;;;;21.25;13.75;;;;;;;19.15;83.57;100703.27;1888482;76;21100;-58
2021/08/26 03:23:35;;;;;;;19.73;12.88;;;;;;;19.20;83.43;100703.77;1916133;75;21022;-60
2021/08/26 03:26:04;;;;;;;19.57;11.10;;;;;;;19.23;83.30;100698.67;1888583;76;21117;-59
2021/08/26 03:28:32;;;;;;;16.90;10.00;;;;;;;19.29;83.14;100710.20;1916123;75;21074;-60
2021/08/26 03:31:01;;;;;;;15.35;9.25;;;;;;;19.38;82.96;100708.66;1888588;76;21038;-59
2021/08/26 03:33:30;;;;;;;23.75;9.75;;;;;;;19.44;82.80;100706.84;1888453;76;21112;-60
2021/08/26 03:35:59;;;;;;;19.95;9.68;;;;;;;19.53;82.60;100700.83;1888521;76;21136;-60
2021/08/26 03:38:27;;;;;;;13.98;9.03;;;;;;;19.58;82.34;100706.64;1888596;76;21015;-60
2021/08/26 03:40:56;;;;;;;16.50;8.30;;;;;;;19.62;82.09;100713.47;1888519;76;21120;-59
2021/08/26 03:43:26;;;;;;;16.93;8.78;;;;;;;19.71;81.97;100726.57;1888574;76;21082;-60
2021/08/26 03:45:55;;;;;;;17.52;9.40;;;;;;;19.72;81.84;100716.76;1888490;76;21132;-61
2021/08/26 03:48:23;;;;;;;20.80;9.08;;;;;;;19.78;81.73;100720.31;1888570;76;21505;-60
2021/08/26 03:50:52;;;;;;;19.73;9.03;;;;;;;19.93;81.47;100721.77;1888538;76;21124;-60
2021/08/26 03:53:20;;;;;;;16.25;9.10;;;;;;;20.09;81.17;100716.07;1888649;76;21042;-59
2021/08/26 03:55:49;;;;;;;16.90;9.10;;;;;;;20.29;80.80;100710.47;1888719;76;21120;-60
2021/08/26 03:58:18;;;;;;;21.65;9.35;;;;;;;20.48;80.51;100695.11;1888557;76;21058;-60
2021/08/26 04:00:46;;;;;;;19.80;9.50;;;;;;;20.61;80.20;100699.84;1888446;76;21125;-60
2021/08/26 04:03:15;;;;;;;22.82;10.13;;;;;;;20.66;79.79;100707.52;1888610;76;21034;-59
2021/08/26 04:05:44;;;;;;;21.27;9.53;;;;;;;20.80;79.54;100700.54;1916227;75;21010;-60
2021/08/26 04:08:13;;;;;;;16.20;8.78;;;;;;;21.00;79.38;100695.34;1890383;75;21228;-60
2021/08/26 04:10:41;;;;;;;14.60;8.35;;;;;;;21.17;79.06;100694.78;1891920;76;21066;-60
2021/08/26 04:13:10;;;;;;;16.70;9.25;;;;;;;21.39;78.78;100704.98;1891862;76;21062;-60
2021/08/26 04:15:39;;;;;;;17.80;8.70;;;;;;;21.65;78.46;100703.27;1891989;76;21599;-60
2021/08/26 04:18:08;;;;;;;16.80;9.28;;;;;;;21.94;77.71;100706.94;1892131;76;21058;-60
2021/08/26 04:20:37;;;;;;;21.07;8.88;;;;;;;22.25;77.24;100709.61;1891946;76;21063;-60
2021/08/26 04:23:07;;;;;;;18.95;8.50;;;;;;;22.58;76.64;100717.00;1892001;76;21038;-60
2021/08/26 04:25:36;;;;;;;19.23;8.70;;;;;;;22.89;75.97;100712.38;1891873;76;21437;-60
2021/08/26 04:28:06;;;;;;;13.18;8.15;;;;;;;23.09;74.82;100707.02;1891969;76;21535;-60
2021/08/26 04:30:36;;;;;;;15.28;8.20;;;;;;;23.27;74.28;100700.44;1892085;76;21104;-60
2021/08/26 04:33:05;;;;;;;16.77;8.50;;;;;;;23.51;73.89;100697.28;1891953;76;21462;-60
2021/08/26 04:35:34;;;;;;;16.97;8.48;;;;;;;23.75;73.62;100698.64;1891964;76;21464;-59
2021/08/26 04:38:03;;;;;;;15.45;9.10;;;;;;;23.94;72.89;100699.09;1892046;76;21112;-60
2021/08/26 04:40:31;;;;;;;13.98;8.00;;;;;;;24.14;72.17;100693.97;1891929;76;21004;-60
2021/08/26 04:43:00;;;;;;;19.50;7.75;;;;;;;24.37;71.81;100697.11;1891991;76;21007;-59
2021/08/26 04:45:29;;;;;;;16.15;7.97;;;;;;;24.59;71.35;100695.87;1892099;76;21520;-60
2021/08/26 04:47:58;;;;;;;17.30;8.90;;;;;;;24.80;70.48;100696.07;1892059;76;21063;-59
2021/08/26 04:50:27;;;;;;;14.63;8.10;;;;;;;25.04;70.32;100688.70;1891865;76;21034;-61
2021/08/26 04:52:55;;;;;;;17.05;7.53;;;;;;;25.19;69.68;100694.38;1891945;76;21039;-60
2021/08/26 04:55:24;;;;;;;14.73;9.65;;;;;;;25.45;69.33;100686.86;1891955;76;21066;-60
2021/08/26 04:57:53;;;;;;;14.53;7.47;;;;;;;25.81;68.55;100691.63;1891961;76;21465;-60
2021/08/26 05:00:22;;;;;;;15.18;7.92;;;;;;;26.16;68.08;100685.25;1892045;76;21007;-60
2021/08/26 05:02:51;;;;;;;11.40;6.97;;;;;;;26.49;67.48;100689.91;1891956;76;21051;-59
2021/08/26 05:05:20;;;;;;;15.80;7.72;;;;;;;26.79;66.95;100691.68;1891936;76;21203;-60
2021/08/26 05:07:48;;;;;;;17.67;8.45;;;;;;;27.06;66.42;100694.58;1891901;74;21125;-60
2021/08/26 05:10:17;;;;;;;15.80;10.28;;;;;;;27.38;66.06;100698.30;1891925;76;21015;-60
2021/08/26 05:12:46;;;;;;;16.17;9.80;;;;;;;27.61;65.16;100698.41;1925801;74;21539;-60
2021/08/26 05:15:14;;;;;;;15.93;8.80;;;;;;;27.85;64.69;100703.78;1892057;76;21046;-60
2021/08/26 05:17:43;;;;;;;16.65;8.40;;;;;;;28.09;64.14;100698.82;1891851;76;21038;-60
2021/08/26 05:20:12;;;;;;;15.23;8.00;;;;;;;28.26;63.19;100703.64;1892047;76;21086;-60
2021/08/26 05:22:42;;;;;;;11.85;6.95;;;;;;;28.30;62.62;100704.97;1892011;76;21010;-60
2021/08/26 05:25:11;;;;;;;13.83;7.70;;;;;;;28.42;62.36;100703.21;1891955;76;21532;-60
2021/08/26 05:27:40;;;;;;;15.43;7.62;;;;;;;28.64;62.19;100711.07;1891923;76;21120;-59
2021/08/26 05:30:08;;;;;;;14.83;7.47;;;;;;;28.70;62.00;100709.02;1891808;76;21030;-61
2021/08/26 05:32:37;;;;;;;12.43;7.22;;;;;;;28.33;62.26;100706.98;1891901;76;21034;-60
2021/08/26 05:35:06;;;;;;;15.68;7.95;;;;;;;28.47;62.42;100706.23;1891885;76;21030;-60
2021/08/26 05:37:35;;;;;;;13.80;7.10;;;;;;;28.64;62.09;100706.52;1892036;76;21007;-60
2021/08/26 05:40:05;;;;;;;9.88;6.55;;;;;;;28.95;61.82;100702.06;1891933;76;21054;-60
2021/08/26 05:42:34;;;;;;;11.08;6.70;;;;;;;29.34;61.40;100702.43;1891971;76;21144;-61
2021/08/26 05:45:04;;;;;;;10.80;6.47;;;;;;;29.65;60.76;100706.36;1892038;76;20991;-60
2021/08/26 05:47:32;;;;;;;15.08;7.47;;;;;;;29.94;60.30;100705.56;1891899;76;21034;-60
2021/08/26 05:50:01;;;;;;;12.07;7.00;;;;;;;29.64;59.23;100705.53;1891928;76;21031;-60
2021/08/26 05:52:30;;;;;;;9.53;6.47;;;;;;;29.22;59.75;100706.95;1891942;76;21148;-60
2021/08/26 05:54:58;;;;;;;10.55;6.58;;;;;;;28.79;59.97;100703.88;1891904;76;21067;-60
2021/08/26 05:57:27;;;;;;;11.12;7.90;;;;;;;28.34;60.49;100702.75;1891846;76;21101;-60
2021/08/26 05:59:56;;;;;;;11.68;7.30;;;;;;;28.04;61.31;100712.55;1891958;76;21058;-60
2021/08/26 06:02:24;;;;;;;13.62;7.10;;;;;;;27.91;61.86;100713.93;1891900;76;21062;-60
2021/08/26 06:04:53;;;;;;;12.03;7.15;;;;;;;27.87;62.31;100719.84;1891949;76;21034;-60
2021/08/26 06:07:22;;;;;;;12.35;6.53;;;;;;;27.82;62.50;100719.00;1891900;76;21038;-60
2021/08/26 06:09:50;;;;;;;13.75;7.15;;;;;;;27.86;62.61;100716.80;1889831;74;21082;-60
2021/08/26 06:12:19;;;;;;;14.33;6.60;;;;;;;27.94;62.76;100716.78;1888521;76;21055;-60
2021/08/26 06:14:48;;;;;;;10.50;6.17;;;;;;;28.09;62.63;100723.17;1888501;76;21054;-60
2021/08/26 06:17:16;;;;;;;10.10;5.85;;;;;;;28.35;62.22;100723.41;1888747;76;21011;-60
2021/08/26 06:19:45;;;;;;;15.13;6.50;;;;;;;28.68;62.06;100719.16;1888525;76;21054;-60
2021/08/26 06:22:14;;;;;;;8.08;6.08;;;;;;;28.71;61.77;100725.59;1888426;76;21070;-61
2021/08/26 06:24:43;;;;;;;8.80;5.65;;;;;;;28.59;60.73;100721.59;1888489;76;21190;-60
2021/08/26 06:27:11;;;;;;;9.05;6.05;;;;;;;28.42;60.35;100720.33;1888446;76;21489;-60
2021/08/26 06:29:40;;;;;;;15.18;5.92;;;;;;;28.35;60.52;100716.64;1888480;76;21011;-59
2021/08/26 06:32:09;;;;;;;9.38;5.65;;;;;;;28.30;60.51;100717.67;1888589;76;21042;-60
2021/08/26 06:34:37;;;;;;;8.65;5.35;;;;;;;28.28;60.54;100722.42;1888525;76;21010;-60
2021/08/26 06:37:06;;;;;;;8.48;5.72;;;;;;;28.41;60.22;100724.04;1888577;76;21078;-60
2021/08/26 06:39:35;;;;;;;9.10;5.92;;;;;;;28.49;59.90;100726.69;1888504;76;21055;-60
2021/08/26 06:42:04;;;;;;;8.48;5.70;;;;;;;28.48;59.77;100722.31;1888596;76;21521;-60
2021/08/26 06:44:33;;;;;;;13.40;5.97;;;;;;;28.56;59.63;100720.62;1888575;76;21473;-60
2021/08/26 06:47:02;;;;;;;14.45;6.10;;;;;;;28.62;59.14;100728.02;1888619;76;21030;-60
2021/08/26 06:49:32;;;;;;;9.58;5.70;;;;;;;28.76;58.82;100723.19;1888485;76;21133;-60
2021/08/26 06:52:00;;;;;;;9.93;6.15;;;;;;;28.79;58.36;100724.69;1888580;76;21592;-60
2021/08/26 06:54:29;;;;;;;7.62;5.55;;;;;;;28.86;58.20;100714.30;1888609;76;21567;-60
2021/08/26 06:56:58;;;;;;;10.35;5.75;;;;;;;29.45;57.44;100712.34;1888597;76;21525;-60
2021/08/26 06:59:27;;;;;;;9.23;6.03;;;;;;;30.17;56.34;100705.42;1888569;76;21120;-60
2021/08/26 07:01:55;;;;;;;18.05;6.67;;;;;;;30.73;55.14;100710.83;1888564;76;21087;-61
2021/08/26 07:04:24;;;;;;;8.90;6.47;;;;;;;31.20;54.40;100716.73;1888584;76;21079;-60
2021/08/26 07:06:54;;;;;;;10.25;5.80;;;;;;;31.52;53.09;100710.73;1888593;76;21509;-60
2021/08/26 07:09:24;;;;;;;8.63;6.17;;;;;;;32.05;52.17;100708.03;1888324;74;21075;-60
2021/08/26 07:11:52;;;;;;;9.28;6.40;;;;;;;32.04;51.13;100715.37;1888567;76;21124;-60
2021/08/26 07:14:21;;;;;;;11.38;7.47;;;;;;;31.52;51.30;100722.98;1888436;76;21011;-61
2021/08/26 07:16:50;;;;;;;11.97;7.33;;;;;;;31.39;52.00;100725.55;1888649;76;21059;-60
2021/08/26 07:19:18;;;;;;;11.95;8.00;;;;;;;31.01;52.31;100723.15;1888569;76;21043;-60
2021/08/26 07:21:48;;;;;;;10.88;7.30;;;;;;;30.58;53.62;100726.66;1888531;76;21031;-60
2021/08/26 07:24:17;;;;;;;10.85;7.67;;;;;;;30.31;54.15;100724.63;1888678;76;21006;-60
2021/08/26 07:26:46;;;;;;;10.82;8.03;;;;;;;29.89;54.69;100728.34;1888649;76;21056;-60
2021/08/26 07:29:16;;;;;;;12.82;8.33;;;;;;;29.51;55.29;100723.45;1888667;76;21063;-60
2021/08/26 07:31:46;;;;;;;13.00;7.45;;;;;;;29.20;56.07;100733.41;1888661;76;21071;-60
2021/08/26 07:34:15;;;;;;;10.32;7.17;;;;;;;29.41;56.15;100725.08;1888573;76;21106;-60
2021/08/26 07:36:43;;;;;;;11.30;7.35;;;;;;;29.57;55.89;100729.00;1888694;76;21018;-60
2021/08/26 07:39:12;;;;;;;14.10;7.62;;;;;;;29.94;55.24;100734.06;1888569;76;21010;-60
2021/08/26 07:41:41;;;;;;;13.25;7.90;;;;;;;29.95;55.58;100727.58;1888519;76;21059;-61
2021/08/26 07:44:10;;;;;;;11.08;7.60;;;;;;;29.80;56.06;100725.39;1888479;76;21034;-60
2021/08/26 07:46:39;;;;;;;13.78;7.58;;;;;;;29.78;56.00;100717.44;1888538;76;21055;-60
2021/08/26 07:49:08;;;;;;;13.43;7.42;;;;;;;29.70;56.22;100719.38;1888704;76;21039;-60
2021/08/26 07:51:36;;;;;;;14.50;6.92;;;;;;;29.52;56.16;100719.20;1888651;76;21539;-60
2021/08/26 07:54:05;;;;;;;13.13;7.83;;;;;;;29.52;56.32;100719.73;1888426;76;21128;-60
2021/08/26 07:56:35;;;;;;;13.78;7.28;;;;;;;30.55;55.25;100716.69;1888572;76;21041;-60
2021/08/26 07:59:04;;;;;;;13.48;7.53;;;;;;;30.87;53.02;100721.30;1888558;76;21086;-60
2021/08/26 08:01:33;;;;;;;10.13;7.15;;;;;;;30.89;53.28;100723.30;1888560;76;21066;-60
2021/08/26 08:04:02;;;;;;;11.40;7.37;;;;;;;31.05;52.43;100720.36;1888540;76;21039;-60
2021/08/26 08:06:31;;;;;;;12.25;7.22;;;;;;;30.65;52.33;100720.44;1888455;76;21128;-60
2021/08/26 08:08:59;;;;;;;13.85;7.30;;;;;;;30.50;53.06;100715.89;1888607;76;21070;-60
2021/08/26 08:11:28;;;;;;;9.48;6.90;;;;;;;30.76;52.59;100708.53;1890985;74;21090;-60
2021/08/26 08:13:57;;;;;;;11.75;6.50;;;;;;;31.52;51.43;100705.30;1892180;76;21426;-60
2021/08/26 08:16:26;;;;;;;10.75;7.78;;;;;;;31.99;50.53;100707.45;1891995;76;21442;-60
2021/08/26 08:18:55;;;;;;;9.85;7.90;;;;;;;31.81;49.82;100712.90;1891880;76;21089;-60
2021/08/26 08:21:24;;;;;;;12.50;7.20;;;;;;;31.62;50.81;100710.91;1891932;76;21172;-59
2021/08/26 08:23:53;;;;;;;8.95;6.12;;;;;;;31.34;50.90;100712.55;1891921;76;21061;-60
2021/08/26 08:26:22;;;;;;;13.20;7.35;;;;;;;31.00;51.53;100710.58;1891969;76;21070;-60
2021/08/26 08:28:52;;;;;;;8.53;7.20;;;;;;;31.23;51.28;100703.58;1891965;76;21481;-60
2021/08/26 08:31:20;;;;;;;10.65;6.50;;;;;;;31.68;49.99;100704.66;1892073;76;21035;-60
2021/08/26 08:33:49;;;;;;;8.93;6.62;;;;;;;32.40;48.06;100698.43;1891912;76;21138;-60
2021/08/26 08:36:20;;;;;;;11.53;7.92;;;;;;;32.92;47.22;100689.23;1891938;76;21140;-60
2021/08/26 08:38:49;;;;;;;10.82;7.50;;;;;;;32.53;47.62;100697.09;1892152;76;21022;-60
2021/08/26 08:41:19;;;;;;;10.13;7.53;;;;;;;31.69;48.40;100696.30;1892050;76;21010;-60
2021/08/26 08:43:49;;;;;;;16.73;8.15;;;;;;;31.78;49.09;100694.27;1891907;76;21442;-60
2021/08/26 08:46:20;;;;;;;9.93;6.83;;;;;;;32.54;48.07;100704.24;1891846;76;21672;-60
2021/08/26 08:48:49;;;;;;;12.55;7.47;;;;;;;33.13;47.51;100698.62;1891999;76;21037;-60
2021/08/26 08:51:19;;;;;;;7.95;6.60;;;;;;;33.59;44.75;100699.09;1891931;76;21108;-60
2021/08/26 08:53:48;;;;;;;9.60;7.03;;;;;;;33.12;44.44;100701.55;1891943;76;21066;-60
2021/08/26 08:56:18;;;;;;;11.68;6.55;;;;;;;33.26;45.36;100692.32;1891925;76;21062;-60
2021/08/26 08:58:46;;;;;;;11.10;7.08;;;;;;;33.82;43.73;100701.37;1891881;76;21105;-60
2021/08/26 09:01:16;;;;;;;9.95;6.87;;;;;;;34.27;43.31;100702.50;1891966;76;21168;-60
2021/08/26 09:03:44;;;;;;;7.78;6.47;;;;;;;34.45;42.94;100709.45;1891913;76;21539;-60
2021/08/26 09:06:14;;;;;;;10.90;6.72;;;;;;;33.96;43.75;100706.81;1891910;76;21584;-60
2021/08/26 09:08:44;;;;;;;10.70;7.55;;;;;;;34.07;43.84;100718.44;1891942;76;21489;-60
2021/08/26 09:11:16;;;;;;;10.05;7.22;;;;;;;34.38;43.25;100719.58;1887445;74;21071;-60
2021/08/26 09:13:46;;;;;;;12.67;7.60;;;;;;;34.93;43.15;100719.89;1888808;76;21078;-60
2021/08/26 09:16:15;;;;;;;12.68;7.33;;;;;;;35.26;41.11;100715.27;1888552;76;21066;-60
2021/08/26 09:18:44;;;;;;;12.15;6.72;;;;;;;35.22;40.89;100709.94;1888561;76;21497;-60
2021/08/26 09:21:14;;;;;;;9.65;7.03;;;;;;;35.02;40.97;100715.00;1888546;76;21046;-60
2021/08/26 09:24:00;;;;;;;8.75;5.62;;;;;;;35.33;41.43;100711.41;1888370;76;21007;-61
2021/08/26 09:26:29;;;;;;;9.05;6.25;;;;;;;34.97;41.18;100705.25;1888479;76;21116;-60
2021/08/26 09:29:03;;;;;;;10.25;7.08;;;;;;;34.41;42.03;100710.41;1888606;76;21014;-60
2021/08/26 09:31:33;;;;;;;11.78;7.20;;;;;;;34.04;42.97;100714.75;1888472;76;21100;-60
2021/08/26 09:34:13;;;;;;;11.20;6.87;;;;;;;34.02;42.85;100704.58;1888439;76;21441;-60
2021/08/26 09:36:51;;;;;;;10.38;6.85;;;;;;;34.27;42.43;100709.33;1888505;76;21148;-60
2021/08/26 09:39:22;;;;;;;9.60;7.00;;;;;;;34.31;42.08;100714.16;1888547;76;21038;-60
2021/08/26 09:42:02;;;;;;;9.28;6.40;;;;;;;34.57;42.21;100723.28;1888642;76;21185;-60
2021/08/26 09:44:30;;;;;;;10.13;7.50;;;;;;;34.79;41.33;100722.44;1887092;76;21051;-61
2021/08/26 09:47:01;;;;;;;10.45;6.40;;;;;;;34.94;41.72;100722.95;1888636;76;21015;-60
2021/08/26 09:49:32;;;;;;;11.53;7.53;;;;;;;35.03;41.55;100725.41;1888828;76;21040;-60
2021/08/26 09:52:07;;;;;;;11.93;6.92;;;;;;;34.89;41.18;100728.25;1888744;76;21132;-60
2021/08/26 09:54:44;;;;;;;12.90;7.75;;;;;;;34.54;41.99;100732.73;1888517;76;21118;-60
2021/08/26 09:57:27;;;;;;;9.90;7.53;;;;;;;34.42;42.23;100726.30;1888392;76;21197;-60
2021/08/26 09:59:58;;;;;;;11.50;7.28;;;;;;;34.41;42.06;100731.45;1888643;76;21090;-60
2021/08/26 10:02:30;;;;;;;11.30;6.95;;;;;;;34.35;41.88;100721.39;1887651;76;21556;-60
2021/08/26 10:04:59;;;;;;;11.63;6.37;;;;;;;34.25;42.51;100721.01;1888759;76;21050;-60
2021/08/26 10:07:29;;;;;;;9.73;6.47;;;;;;;34.36;43.15;100725.79;1888319;76;21113;-61
2021/08/26 10:09:58;;;;;;;11.57;7.12;;;;;;;34.68;42.76;100728.08;1888580;76;21042;-60
2021/08/26 10:12:27;;;;;;;9.08;6.40;;;;;;;34.97;42.11;100725.26;1888564;74;21576;-60
2021/08/26 10:14:56;;;;;;;9.00;7.08;;;;;;;34.92;41.67;100735.19;1888469;76;21063;-60
2021/08/26 10:17:25;;;;;;;9.73;7.55;;;;;;;34.94;41.76;100732.53;1888518;76;21438;-60
2021/08/26 10:19:54;;;;;;;11.05;6.67;;;;;;;34.82;41.93;100717.88;1888417;76;21522;-61
2021/08/26 10:22:23;;;;;;;10.15;7.28;;;;;;;34.71;42.67;100726.28;1888514;76;21482;-60
2021/08/26 10:24:52;;;;;;;10.43;6.37;;;;;;;34.56;42.22;100745.66;1888459;76;21035;-60
2021/08/26 10:27:27;;;;;;;8.78;6.75;;;;;;;34.26;43.39;100731.05;1888469;76;21132;-60
2021/08/26 10:29:52;;;;;;;10.03;6.87;;;;;;;34.37;43.41;100731.05;1888261;76;21043;-59
2021/08/26 10:32:26;;;;;;;10.88;7.55;;;;;;;34.68;43.22;100737.65;1888373;76;21058;-61
2021/08/26 10:35:13;;;;;;;11.95;6.85;;;;;;;34.47;41.86;100736.03;1888667;76;21043;-60
2021/08/26 10:37:55;;;;;;;9.68;6.50;;;;;;;34.26;42.60;100740.46;1888502;76;21027;-60
2021/08/26 10:40:24;;;;;;;;;;;;;;;34.17;42.96;100744.78;1891417;76;21042;-60
2021/08/26 10:42:54;;;;;;;8.98;6.70;;;;;;;34.30;42.88;100746.63;1916234;73;20129;-59
2021/08/26 10:45:41;;;;;;;9.73;6.80;;;;;;;34.14;42.01;100742.47;1888445;76;21035;-59
2021/08/26 10:48:12;;;;;;;12.00;6.60;;;;;;;33.88;42.92;100746.63;1856333;77;21511;-59
2021/08/26 10:50:45;;;;;;;11.97;6.65;;;;;;;33.65;43.73;100754.77;1878610;76;21027;-59
2021/08/26 10:53:20;;;;;;;10.72;7.08;;;;;;;33.63;44.05;100752.21;1888377;76;21031;-60
2021/08/26 10:55:52;;;;;;;8.55;6.28;;;;;;;33.44;43.97;100751.19;1888479;76;21148;-59
2021/08/26 10:58:28;;;;;;;11.35;6.80;;;;;;;33.20;44.71;100751.80;1888708;76;21011;-59
2021/08/26 11:01:02;;;;;;;9.43;6.60;;;;;;;33.02;45.53;100766.87;1888500;76;21062;-59
2021/08/26 11:03:46;;;;;;;10.38;6.90;;;;;;;32.98;44.39;100749.75;1888547;76;21038;-59
2021/08/26 11:06:24;;;;;;;10.45;6.97;;;;;;;32.81;45.38;100743.34;1884223;76;21030;-59
2021/08/26 11:08:52;;;;;;;11.60;8.28;;;;;;;32.69;45.66;100750.44;1887484;76;21054;-59
2021/08/26 11:11:32;;;;;;;10.53;7.17;;;;;;;32.66;46.68;100734.48;1888018;76;21082;-59
2021/08/26 11:14:06;;;;;;;10.45;7.87;;;;;;;32.52;47.28;100751.30;1890094;75;21078;-60
2021/08/26 11:16:38;;;;;;;12.85;6.97;;;;;;;32.34;47.12;100746.41;1891820;76;21571;-59
2021/08/26 11:19:09;;;;;;;11.38;6.87;;;;;;;32.16;48.20;100752.39;1891907;76;21536;-59
2021/08/26 11:21:46;;;;;;;11.50;7.13;;;;;;;32.15;48.86;100747.14;1892272;76;21132;-59
2021/08/26 11:24:23;;;;;;;10.93;6.03;;;;;;;31.94;48.77;100744.80;1891972;76;21058;-59
2021/08/26 11:27:00;;;;;;;9.58;6.60;;;;;;;31.82;48.58;100741.81;1891930;76;21125;-59
2021/08/26 11:29:37;;;;;;;8.38;6.53;;;;;;;31.78;48.87;100750.56;1892107;76;21026;-59
2021/08/26 11:32:09;;;;;;;8.98;6.67;;;;;;;31.75;49.22;100749.09;1892105;76;21062;-59